sensor_id;sensor_type;location;lat;lon;timestamp;pressure;altitude;pressure_sealevel;temperature;humidity
64064;BME280;50314;50.618;10.642;2023-02-23T00:01:39;96250.69;;;17.31;24.96
64064;BME280;50314;50.618;10.642;2023-02-23T00:04:05;96257.03;;;17.30;25.13
64064;BME280;50314;50.618;10.642;2023-02-23T00:06:32;96257.03;;;17.30;25.00
64064;BME280;50314;50.618;10.642;2023-02-23T00:09:01;96262.34;;;17.30;25.20
64064;BME280;50314;50.618;10.642;2023-02-23T00:11:27;96258.84;;;17.29;25.00
64064;BME280;50314;50.618;10.642;2023-02-23T00:13:53;96259.84;;;17.28;24.66
64064;BME280;50314;50.618;10.642;2023-02-23T00:16:23;96253.88;;;17.26;25.11
64064;BME280;50314;50.618;10.642;2023-02-23T00:18:54;96257.34;;;17.27;25.15
64064;BME280;50314;50.618;10.642;2023-02-23T00:21:28;96255.84;;;17.24;25.03
64064;BME280;50314;50.618;10.642;2023-02-23T00:23:57;96257.69;;;17.24;25.19
64064;BME280;50314;50.618;10.642;2023-02-23T00:26:24;96260.34;;;17.24;24.98
64064;BME280;50314;50.618;10.642;2023-02-23T00:28:54;96256.34;;;17.20;25.09
64064;BME280;50314;50.618;10.642;2023-02-23T00:31:20;96252.69;;;17.21;25.08
64064;BME280;50314;50.618;10.642;2023-02-23T00:33:51;96261.69;;;17.20;25.20
64064;BME280;50314;50.618;10.642;2023-02-23T00:36:19;96247.53;;;17.19;25.09
64064;BME280;50314;50.618;10.642;2023-02-23T00:38:45;96242.22;;;17.19;24.89
64064;BME280;50314;50.618;10.642;2023-02-23T00:41:13;96253.84;;;17.18;25.02
64064;BME280;50314;50.618;10.642;2023-02-23T00:43:41;96247.69;;;17.18;25.21
64064;BME280;50314;50.618;10.642;2023-02-23T00:46:17;96246.88;;;17.17;24.96
64064;BME280;50314;50.618;10.642;2023-02-23T00:48:44;96246.03;;;17.17;24.88
64064;BME280;50314;50.618;10.642;2023-02-23T00:51:10;96251.50;;;17.15;25.12
64064;BME280;50314;50.618;10.642;2023-02-23T00:53:36;96250.88;;;17.13;25.11
64064;BME280;50314;50.618;10.642;2023-02-23T00:56:05;96255.50;;;17.11;24.98
64064;BME280;50314;50.618;10.642;2023-02-23T00:58:31;96247.38;;;17.12;25.05
64064;BME280;50314;50.618;10.642;2023-02-23T01:00:57;96247.38;;;17.12;24.82
64064;BME280;50314;50.618;10.642;2023-02-23T01:03:26;96236.88;;;17.11;25.11
64064;BME280;50314;50.618;10.642;2023-02-23T01:05:52;96240.53;;;17.02;25.18
64064;BME280;50314;50.618;10.642;2023-02-23T01:08:20;96245.38;;;17.06;24.98
64064;BME280;50314;50.618;10.642;2023-02-23T01:10:46;96253.19;;;17.00;25.14
64064;BME280;50314;50.618;10.642;2023-02-23T01:13:18;96253.50;;;17.05;25.09
64064;BME280;50314;50.618;10.642;2023-02-23T01:15:44;96252.50;;;16.98;25.25
64064;BME280;50314;50.618;10.642;2023-02-23T01:18:13;96245.84;;;17.02;25.15
64064;BME280;50314;50.618;10.642;2023-02-23T01:20:38;96256.16;;;17.05;24.98
64064;BME280;50314;50.618;10.642;2023-02-23T01:23:06;96249.19;;;17.04;25.04
64064;BME280;50314;50.618;10.642;2023-02-23T01:25:33;96251.16;;;17.02;25.15
64064;BME280;50314;50.618;10.642;2023-02-23T01:27:59;96246.69;;;17.02;24.94
64064;BME280;50314;50.618;10.642;2023-02-23T01:30:25;96243.38;;;17.00;25.02
64064;BME280;50314;50.618;10.642;2023-02-23T01:32:51;96248.50;;;17.02;25.05
64064;BME280;50314;50.618;10.642;2023-02-23T01:35:17;96243.53;;;16.99;25.10
64064;BME280;50314;50.618;10.642;2023-02-23T01:37:43;96245.34;;;16.98;24.92
64064;BME280;50314;50.618;10.642;2023-02-23T01:40:14;96239.53;;;16.95;25.08
64064;BME280;50314;50.618;10.642;2023-02-23T01:42:44;96241.22;;;16.96;24.99
64064;BME280;50314;50.618;10.642;2023-02-23T01:45:24;96240.72;;;16.92;25.21
64064;BME280;50314;50.618;10.642;2023-02-23T01:47:55;96242.34;;;16.93;25.12
64064;BME280;50314;50.618;10.642;2023-02-23T01:50:23;96244.00;;;16.94;24.95
64064;BME280;50314;50.618;10.642;2023-02-23T01:52:50;96232.53;;;16.94;24.99
64064;BME280;50314;50.618;10.642;2023-02-23T01:55:17;96236.22;;;16.93;25.15
64064;BME280;50314;50.618;10.642;2023-02-23T01:57:50;96241.53;;;16.93;25.12
64064;BME280;50314;50.618;10.642;2023-02-23T02:00:18;96234.38;;;16.93;24.83
64064;BME280;50314;50.618;10.642;2023-02-23T02:02:44;96232.72;;;16.92;25.01
64064;BME280;50314;50.618;10.642;2023-02-23T02:05:14;96235.38;;;16.92;25.05
64064;BME280;50314;50.618;10.642;2023-02-23T02:07:46;96232.88;;;16.90;25.14
64064;BME280;50314;50.618;10.642;2023-02-23T02:10:13;96229.22;;;16.91;24.84
64064;BME280;50314;50.618;10.642;2023-02-23T02:12:40;96229.22;;;16.91;24.96
64064;BME280;50314;50.618;10.642;2023-02-23T02:15:09;96231.88;;;16.91;25.15
64064;BME280;50314;50.618;10.642;2023-02-23T02:18:18;96226.38;;;16.85;25.04
64064;BME280;50314;50.618;10.642;2023-02-23T02:23:49;96229.88;;;16.85;24.99
64064;BME280;50314;50.618;10.642;2023-02-23T02:26:52;96228.72;;;16.80;25.23
64064;BME280;50314;50.618;10.642;2023-02-23T02:39:03;96231.97;;;16.74;25.19
64064;BME280;50314;50.618;10.642;2023-02-23T02:41:44;96230.84;;;16.76;25.09
64064;BME280;50314;50.618;10.642;2023-02-23T02:47:21;96227.84;;;16.79;25.10
64064;BME280;50314;50.618;10.642;2023-02-23T02:50:14;96227.16;;;16.77;25.17
64064;BME280;50314;50.618;10.642;2023-02-23T02:55:16;96231.47;;;16.78;25.18
64064;BME280;50314;50.618;10.642;2023-02-23T02:57:44;96228.72;;;16.80;25.04
64064;BME280;50314;50.618;10.642;2023-02-23T03:00:19;96227.16;;;16.77;25.04
64064;BME280;50314;50.618;10.642;2023-02-23T03:03:04;96230.50;;;16.79;25.03
64064;BME280;50314;50.618;10.642;2023-02-23T03:05:50;96227.34;;;16.76;25.05
64064;BME280;50314;50.618;10.642;2023-02-23T03:08:49;96222.34;;;16.73;25.10
64064;BME280;50314;50.618;10.642;2023-02-23T03:11:39;96231.31;;;16.72;25.09
64064;BME280;50314;50.618;10.642;2023-02-23T03:14:35;96229.66;;;16.71;25.22
64064;BME280;50314;50.618;10.642;2023-02-23T03:23:18;96235.78;;;16.63;25.13
64064;BME280;50314;50.618;10.642;2023-02-23T03:26:12;96232.81;;;16.66;25.18
64064;BME280;50314;50.618;10.642;2023-02-23T03:31:47;96228.81;;;16.62;25.05
64064;BME280;50314;50.618;10.642;2023-02-23T03:34:42;96235.09;;;16.61;24.95
64064;BME280;50314;50.618;10.642;2023-02-23T03:37:51;96229.28;;;16.57;25.13
64064;BME280;50314;50.618;10.642;2023-02-23T03:40:40;96231.47;;;16.62;25.05
64064;BME280;50314;50.618;10.642;2023-02-23T03:43:32;96231.63;;;16.60;25.25
64064;BME280;50314;50.618;10.642;2023-02-23T03:46:18;96230.47;;;16.63;25.02
64064;BME280;50314;50.618;10.642;2023-02-23T03:49:07;96228.81;;;16.62;24.88
64064;BME280;50314;50.618;10.642;2023-02-23T03:51:57;96227.13;;;16.61;25.10
64064;BME280;50314;50.618;10.642;2023-02-23T03:54:49;96228.97;;;16.60;25.10
64064;BME280;50314;50.618;10.642;2023-02-23T03:57:36;96227.13;;;16.61;25.04
64064;BME280;50314;50.618;10.642;2023-02-23T04:00:32;96228.47;;;16.57;25.10
64064;BME280;50314;50.618;10.642;2023-02-23T04:03:18;96231.94;;;16.57;25.01
64064;BME280;50314;50.618;10.642;2023-02-23T04:06:07;96229.47;;;16.56;25.08
64064;BME280;50314;50.618;10.642;2023-02-23T04:08:56;96231.44;;;16.54;25.19
64064;BME280;50314;50.618;10.642;2023-02-23T04:11:50;96231.75;;;16.51;25.23
64064;BME280;50314;50.618;10.642;2023-02-23T04:14:47;96236.25;;;16.50;24.90
64064;BME280;50314;50.618;10.642;2023-02-23T04:17:16;96239.41;;;16.54;25.12
64064;BME280;50314;50.618;10.642;2023-02-23T04:19:50;96241.25;;;16.53;25.17
64064;BME280;50314;50.618;10.642;2023-02-23T04:22:15;96239.91;;;16.57;25.01
64064;BME280;50314;50.618;10.642;2023-02-23T04:24:41;96249.56;;;16.58;25.12
64064;BME280;50314;50.618;10.642;2023-02-23T04:27:06;96244.41;;;16.57;25.01
64064;BME280;50314;50.618;10.642;2023-02-23T04:29:31;96252.38;;;16.57;25.18
64064;BME280;50314;50.618;10.642;2023-02-23T04:31:57;96244.25;;;16.58;25.08
64064;BME280;50314;50.618;10.642;2023-02-23T04:34:22;96233.78;;;16.57;25.22
64064;BME280;50314;50.618;10.642;2023-02-23T04:36:48;96246.06;;;16.58;25.06
64064;BME280;50314;50.618;10.642;2023-02-23T04:39:15;96246.25;;;16.56;25.08
64064;BME280;50314;50.618;10.642;2023-02-23T04:41:41;96236.44;;;16.57;25.10
64064;BME280;50314;50.618;10.642;2023-02-23T04:44:07;96235.59;;;16.56;25.08
64064;BME280;50314;50.618;10.642;2023-02-23T04:46:32;96239.25;;;16.55;25.12
64064;BME280;50314;50.618;10.642;2023-02-23T04:48:57;96234.78;;;16.56;25.08
64064;BME280;50314;50.618;10.642;2023-02-23T04:51:23;96241.91;;;16.55;25.14
64064;BME280;50314;50.618;10.642;2023-02-23T04:53:48;96237.44;;;16.56;25.09
64064;BME280;50314;50.618;10.642;2023-02-23T04:56:14;96237.59;;;16.54;25.06
64064;BME280;50314;50.618;10.642;2023-02-23T04:58:40;96240.41;;;16.53;25.12
64064;BME280;50314;50.618;10.642;2023-02-23T05:01:07;96230.59;;;16.53;25.07
64064;BME280;50314;50.618;10.642;2023-02-23T05:03:34;96226.28;;;16.52;25.07
64064;BME280;50314;50.618;10.642;2023-02-23T05:06:00;96240.41;;;16.53;25.02
64064;BME280;50314;50.618;10.642;2023-02-23T05:08:25;96228.94;;;16.52;25.16
64064;BME280;50314;50.618;10.642;2023-02-23T05:10:51;96234.28;;;16.52;25.22
64064;BME280;50314;50.618;10.642;2023-02-23T05:13:16;96234.28;;;16.52;25.13
64064;BME280;50314;50.618;10.642;2023-02-23T05:15:42;96228.78;;;16.54;25.10
64064;BME280;50314;50.618;10.642;2023-02-23T05:18:07;96226.13;;;16.54;25.06
64064;BME280;50314;50.618;10.642;2023-02-23T05:20:33;96230.78;;;16.52;25.13
64064;BME280;50314;50.618;10.642;2023-02-23T05:22:59;96228.94;;;16.52;24.98
64064;BME280;50314;50.618;10.642;2023-02-23T05:25:24;96236.09;;;16.52;25.06
64064;BME280;50314;50.618;10.642;2023-02-23T05:27:50;96237.06;;;16.51;25.19
64064;BME280;50314;50.618;10.642;2023-02-23T05:30:15;96237.06;;;16.51;25.22
64064;BME280;50314;50.618;10.642;2023-02-23T05:32:41;96240.72;;;16.50;25.24
64064;BME280;50314;50.618;10.642;2023-02-23T05:35:07;96232.75;;;16.50;25.16
64064;BME280;50314;50.618;10.642;2023-02-23T05:37:33;96233.59;;;16.50;25.12
64064;BME280;50314;50.618;10.642;2023-02-23T05:39:58;96221.13;;;16.51;25.16
64064;BME280;50314;50.618;10.642;2023-02-23T05:42:24;96233.59;;;16.50;25.06
64064;BME280;50314;50.618;10.642;2023-02-23T05:44:49;96231.94;;;16.49;25.08
64064;BME280;50314;50.618;10.642;2023-02-23T05:47:15;96235.59;;;16.48;24.99
64064;BME280;50314;50.618;10.642;2023-02-23T05:49:40;96233.75;;;16.49;25.00
64064;BME280;50314;50.618;10.642;2023-02-23T05:52:06;96228.44;;;16.49;25.10
64064;BME280;50314;50.618;10.642;2023-02-23T05:54:35;96225.94;;;16.47;25.00
64064;BME280;50314;50.618;10.642;2023-02-23T05:57:00;96229.59;;;16.46;25.22
64064;BME280;50314;50.618;10.642;2023-02-23T05:59:26;96233.91;;;16.47;25.10
64064;BME280;50314;50.618;10.642;2023-02-23T06:01:51;96241.22;;;16.45;25.02
64064;BME280;50314;50.618;10.642;2023-02-23T06:04:16;96241.38;;;16.43;25.19
64064;BME280;50314;50.618;10.642;2023-02-23T06:06:42;96246.69;;;16.43;25.15
64064;BME280;50314;50.618;10.642;2023-02-23T06:09:07;96244.03;;;16.43;25.07
64064;BME280;50314;50.618;10.642;2023-02-23T06:11:33;96249.34;;;16.43;25.19
64064;BME280;50314;50.618;10.642;2023-02-23T06:13:58;96248.69;;;16.41;24.83
64064;BME280;50314;50.618;10.642;2023-02-23T06:16:25;96248.69;;;16.41;25.00
64064;BME280;50314;50.618;10.642;2023-02-23T06:18:50;96250.50;;;16.41;25.01
64064;BME280;50314;50.618;10.642;2023-02-23T06:21:16;96256.97;;;16.38;24.87
64064;BME280;50314;50.618;10.642;2023-02-23T06:23:41;96254.31;;;16.38;25.12
64064;BME280;50314;50.618;10.642;2023-02-23T06:26:07;96250.81;;;16.38;25.12
64064;BME280;50314;50.618;10.642;2023-02-23T06:28:33;96254.31;;;16.38;24.95
64064;BME280;50314;50.618;10.642;2023-02-23T06:30:58;96255.31;;;16.37;24.88
64064;BME280;50314;50.618;10.642;2023-02-23T06:33:24;96261.44;;;16.38;24.94
64064;BME280;50314;50.618;10.642;2023-02-23T06:35:49;96265.94;;;16.37;25.10
64064;BME280;50314;50.618;10.642;2023-02-23T06:38:15;96265.28;;;16.35;25.09
64064;BME280;50314;50.618;10.642;2023-02-23T06:40:41;96263.28;;;16.37;24.93
64064;BME280;50314;50.618;10.642;2023-02-23T06:43:07;96266.09;;;16.36;25.05
64064;BME280;50314;50.618;10.642;2023-02-23T06:45:32;96269.75;;;16.35;24.90
64064;BME280;50314;50.618;10.642;2023-02-23T06:47:58;96272.41;;;16.35;25.05
64064;BME280;50314;50.618;10.642;2023-02-23T06:50:25;96275.91;;;16.35;25.06
64064;BME280;50314;50.618;10.642;2023-02-23T06:52:51;96286.53;;;16.35;25.09
64064;BME280;50314;50.618;10.642;2023-02-23T06:55:16;96287.38;;;16.36;25.08
64064;BME280;50314;50.618;10.642;2023-02-23T06:57:42;96288.38;;;16.35;25.26
64064;BME280;50314;50.618;10.642;2023-02-23T07:00:09;96293.50;;;16.36;25.93
64064;BME280;50314;50.618;10.642;2023-02-23T07:02:39;96298.50;;;16.39;26.32
64064;BME280;50314;50.618;10.642;2023-02-23T07:05:05;96300.84;;;16.42;26.81
64064;BME280;50314;50.618;10.642;2023-02-23T07:07:30;96305.03;;;16.45;26.79
64064;BME280;50314;50.618;10.642;2023-02-23T07:09:57;96308.34;;;16.47;26.62
64064;BME280;50314;50.618;10.642;2023-02-23T07:12:22;96306.38;;;16.49;26.67
64064;BME280;50314;50.618;10.642;2023-02-23T07:14:48;96305.34;;;16.50;26.65
64064;BME280;50314;50.618;10.642;2023-02-23T07:17:13;96307.00;;;16.51;26.56
64064;BME280;50314;50.618;10.642;2023-02-23T07:19:38;96305.88;;;16.54;26.54
64064;BME280;50314;50.618;10.642;2023-02-23T07:22:04;96306.69;;;16.54;26.58
64064;BME280;50314;50.618;10.642;2023-02-23T07:24:30;96309.22;;;16.56;26.51
64064;BME280;50314;50.618;10.642;2023-02-23T07:26:55;96304.72;;;16.56;26.51
64064;BME280;50314;50.618;10.642;2023-02-23T07:29:21;96304.53;;;16.58;26.47
64064;BME280;50314;50.618;10.642;2023-02-23T07:31:48;96311.69;;;16.49;26.68
64064;BME280;50314;50.618;10.642;2023-02-23T07:34:14;96310.88;;;16.57;26.33
64064;BME280;50314;50.618;10.642;2023-02-23T07:36:40;96307.06;;;16.59;26.42
64064;BME280;50314;50.618;10.642;2023-02-23T07:39:05;96306.06;;;16.60;26.31
64064;BME280;50314;50.618;10.642;2023-02-23T07:41:31;96313.91;;;16.62;26.31
64064;BME280;50314;50.618;10.642;2023-02-23T07:43:57;96305.75;;;16.63;26.56
64064;BME280;50314;50.618;10.642;2023-02-23T07:46:24;96314.53;;;16.64;26.27
64064;BME280;50314;50.618;10.642;2023-02-23T07:48:50;96313.56;;;16.65;26.35
64064;BME280;50314;50.618;10.642;2023-02-23T07:51:15;96311.56;;;16.67;26.17
64064;BME280;50314;50.618;10.642;2023-02-23T07:53:42;96318.53;;;16.68;26.27
64064;BME280;50314;50.618;10.642;2023-02-23T07:56:09;96323.03;;;16.67;26.61
64064;BME280;50314;50.618;10.642;2023-02-23T07:58:36;96319.22;;;16.70;26.09
64064;BME280;50314;50.618;10.642;2023-02-23T08:01:02;96319.06;;;16.72;26.47
64064;BME280;50314;50.618;10.642;2023-02-23T08:03:28;96314.59;;;16.72;26.20
64064;BME280;50314;50.618;10.642;2023-02-23T08:05:54;96322.41;;;16.74;26.23
64064;BME280;50314;50.618;10.642;2023-02-23T08:08:19;96320.56;;;16.74;26.50
64064;BME280;50314;50.618;10.642;2023-02-23T08:10:45;96325.75;;;16.76;26.56
64064;BME280;50314;50.618;10.642;2023-02-23T08:15:40;96324.44;;;16.80;26.58
64064;BME280;50314;50.618;10.642;2023-02-23T08:18:06;96324.28;;;16.81;26.86
64064;BME280;50314;50.618;10.642;2023-02-23T08:20:32;96328.44;;;16.84;26.95
64064;BME280;50314;50.618;10.642;2023-02-23T08:22:57;96323.81;;;16.86;26.74
64064;BME280;50314;50.618;10.642;2023-02-23T08:25:24;96325.28;;;16.88;27.00
64064;BME280;50314;50.618;10.642;2023-02-23T08:27:52;96329.63;;;16.89;26.76
64064;BME280;50314;50.618;10.642;2023-02-23T08:30:21;96328.47;;;16.92;26.97
64064;BME280;50314;50.618;10.642;2023-02-23T08:32:49;96329.13;;;16.94;27.05
64064;BME280;50314;50.618;10.642;2023-02-23T08:35:15;96321.00;;;16.96;26.99
64064;BME280;50314;50.618;10.642;2023-02-23T08:37:43;96324.31;;;16.98;26.98
64064;BME280;50314;50.618;10.642;2023-02-23T08:40:10;96316.00;;;17.01;27.02
64064;BME280;50314;50.618;10.642;2023-02-23T08:42:36;96316.69;;;17.03;26.84
64064;BME280;50314;50.618;10.642;2023-02-23T08:45:02;96322.66;;;17.05;26.99
64064;BME280;50314;50.618;10.642;2023-02-23T08:47:27;96315.38;;;17.07;27.05
64064;BME280;50314;50.618;10.642;2023-02-23T08:49:54;96309.88;;;17.08;26.68
64064;BME280;50314;50.618;10.642;2023-02-23T08:52:19;96315.88;;;17.10;26.61
64064;BME280;50314;50.618;10.642;2023-02-23T08:54:45;96318.34;;;17.12;26.73
64064;BME280;50314;50.618;10.642;2023-02-23T08:57:11;96319.03;;;17.14;26.64
64064;BME280;50314;50.618;10.642;2023-02-23T08:59:36;96318.03;;;17.15;26.69
64064;BME280;50314;50.618;10.642;2023-02-23T09:02:04;96318.72;;;17.17;26.57
64064;BME280;50314;50.618;10.642;2023-02-23T09:04:31;96317.56;;;17.20;26.46
64064;BME280;50314;50.618;10.642;2023-02-23T09:06:59;96313.91;;;17.21;26.29
64064;BME280;50314;50.618;10.642;2023-02-23T09:09:25;96315.56;;;17.22;26.24
64064;BME280;50314;50.618;10.642;2023-02-23T09:11:50;96320.72;;;17.23;26.27
64064;BME280;50314;50.618;10.642;2023-02-23T09:14:16;96320.53;;;17.25;26.36
64064;BME280;50314;50.618;10.642;2023-02-23T09:16:41;96324.91;;;17.26;26.43
64064;BME280;50314;50.618;10.642;2023-02-23T09:19:08;96323.72;;;17.20;26.44
64064;BME280;50314;50.618;10.642;2023-02-23T09:21:33;96319.56;;;17.26;26.38
64064;BME280;50314;50.618;10.642;2023-02-23T09:23:59;96328.88;;;17.30;26.31
64064;BME280;50314;50.618;10.642;2023-02-23T09:26:25;96324.38;;;17.30;26.12
64064;BME280;50314;50.618;10.642;2023-02-23T09:28:52;96327.69;;;17.32;25.97
64064;BME280;50314;50.618;10.642;2023-02-23T09:31:21;96326.72;;;17.33;26.13
64064;BME280;50314;50.618;10.642;2023-02-23T09:33:47;96332.69;;;17.35;26.22
64064;BME280;50314;50.618;10.642;2023-02-23T09:36:18;96331.03;;;17.34;26.00
64064;BME280;50314;50.618;10.642;2023-02-23T09:38:46;96334.38;;;17.36;26.02
64064;BME280;50314;50.618;10.642;2023-02-23T09:49:25;96338.88;;;17.36;25.79
64064;BME280;50314;50.618;10.642;2023-02-23T09:51:56;96339.72;;;17.36;26.12
64064;BME280;50314;50.618;10.642;2023-02-23T09:54:26;96337.69;;;17.38;25.74
64064;BME280;50314;50.618;10.642;2023-02-23T09:56:53;96335.72;;;17.41;25.95
64064;BME280;50314;50.618;10.642;2023-02-23T09:59:23;96335.72;;;17.41;25.74
64064;BME280;50314;50.618;10.642;2023-02-23T10:04:37;96340.72;;;17.44;26.19
64064;BME280;50314;50.618;10.642;2023-02-23T10:15:51;96338.38;;;17.41;26.11
64064;BME280;50314;50.618;10.642;2023-02-23T10:18:32;96346.34;;;17.41;26.33
64064;BME280;50314;50.618;10.642;2023-02-23T10:21:05;96344.00;;;17.46;26.13
64064;BME280;50314;50.618;10.642;2023-02-23T10:23:40;96345.56;;;17.48;26.25
64064;BME280;50314;50.618;10.642;2023-02-23T10:26:13;96345.56;;;17.48;25.76
64064;BME280;50314;50.618;10.642;2023-02-23T10:28:40;96346.22;;;17.50;26.08
64064;BME280;50314;50.618;10.642;2023-02-23T10:31:33;96342.22;;;17.46;26.01
64064;BME280;50314;50.618;10.642;2023-02-23T10:34:05;96339.06;;;17.51;25.88
64064;BME280;50314;50.618;10.642;2023-02-23T10:37:05;96337.56;;;17.48;25.98
64064;BME280;50314;50.618;10.642;2023-02-23T10:39:30;96343.38;;;17.52;25.44
64064;BME280;50314;50.618;10.642;2023-02-23T10:42:02;96341.75;;;17.51;25.40
64064;BME280;50314;50.618;10.642;2023-02-23T10:44:29;96346.22;;;17.50;25.68
64064;BME280;50314;50.618;10.642;2023-02-23T10:47:01;96350.19;;;17.46;25.17
64064;BME280;50314;50.618;10.642;2023-02-23T10:49:44;96340.84;;;17.42;25.36
64064;BME280;50314;50.618;10.642;2023-02-23T10:52:11;96348.50;;;17.45;25.32
64064;BME280;50314;50.618;10.642;2023-02-23T10:54:43;96348.00;;;17.42;25.03
64064;BME280;50314;50.618;10.642;2023-02-23T10:57:18;96346.34;;;17.41;25.16
64064;BME280;50314;50.618;10.642;2023-02-23T11:02:24;96349.84;;;17.41;25.41
64064;BME280;50314;50.618;10.642;2023-02-23T11:04:52;96347.19;;;17.41;25.50
64064;BME280;50314;50.618;10.642;2023-02-23T11:07:27;96350.16;;;17.38;25.46
64064;BME280;50314;50.618;10.642;2023-02-23T11:09:55;96346.34;;;17.41;25.30
64064;BME280;50314;50.618;10.642;2023-02-23T11:12:26;96351.00;;;17.38;25.25
64064;BME280;50314;50.618;10.642;2023-02-23T11:14:57;96344.03;;;17.37;25.75
64064;BME280;50314;50.618;10.642;2023-02-23T11:17:32;96344.03;;;17.37;25.67
64064;BME280;50314;50.618;10.642;2023-02-23T11:20:05;96343.00;;;17.38;25.57
64064;BME280;50314;50.618;10.642;2023-02-23T11:22:35;96340.22;;;17.40;25.53
64064;BME280;50314;50.618;10.642;2023-02-23T11:25:02;96341.03;;;17.41;25.35
64064;BME280;50314;50.618;10.642;2023-02-23T11:27:37;96337.38;;;17.42;25.72
64064;BME280;50314;50.618;10.642;2023-02-23T11:30:04;96337.38;;;17.42;25.55
64064;BME280;50314;50.618;10.642;2023-02-23T11:32:32;96333.72;;;17.43;25.51
64064;BME280;50314;50.618;10.642;2023-02-23T11:37:47;96331.72;;;17.45;25.67
64064;BME280;50314;50.618;10.642;2023-02-23T11:40:28;96323.09;;;17.43;25.84
64064;BME280;50314;50.618;10.642;2023-02-23T11:43:05;96325.09;;;17.49;25.68
64064;BME280;50314;50.618;10.642;2023-02-23T11:45:37;96320.44;;;17.51;25.69
64064;BME280;50314;50.618;10.642;2023-02-23T11:48:03;96324.59;;;17.53;25.85
64064;BME280;50314;50.618;10.642;2023-02-23T11:50:32;96320.94;;;17.54;25.75
64064;BME280;50314;50.618;10.642;2023-02-23T11:53:16;96322.78;;;17.54;25.68
64064;BME280;50314;50.618;10.642;2023-02-23T11:55:51;96320.09;;;17.54;25.78
64064;BME280;50314;50.618;10.642;2023-02-23T11:58:32;96320.09;;;17.54;25.54
64064;BME280;50314;50.618;10.642;2023-02-23T12:01:03;96318.78;;;17.58;25.62
64064;BME280;50314;50.618;10.642;2023-02-23T12:03:36;96317.75;;;17.59;25.36
64064;BME280;50314;50.618;10.642;2023-02-23T12:06:02;96308.94;;;17.58;25.49
64064;BME280;50314;50.618;10.642;2023-02-23T12:08:56;96312.94;;;17.54;25.69
64064;BME280;50314;50.618;10.642;2023-02-23T12:11:28;96315.09;;;17.59;25.84
64064;BME280;50314;50.618;10.642;2023-02-23T12:14:02;96315.28;;;17.57;25.51
64064;BME280;50314;50.618;10.642;2023-02-23T12:16:34;96313.44;;;17.58;25.49
64064;BME280;50314;50.618;10.642;2023-02-23T12:21:51;96299.13;;;17.59;25.58
64064;BME280;50314;50.618;10.642;2023-02-23T12:27:18;96299.63;;;17.54;25.61
64064;BME280;50314;50.618;10.642;2023-02-23T12:32:24;96303.81;;;17.57;25.41
64064;BME280;50314;50.618;10.642;2023-02-23T12:34:55;96299.47;;;17.56;25.63
64064;BME280;50314;50.618;10.642;2023-02-23T12:39:56;96295.81;;;17.57;25.75
64064;BME280;50314;50.618;10.642;2023-02-23T12:42:37;96298.81;;;17.54;25.50
64064;BME280;50314;50.618;10.642;2023-02-23T12:45:06;96294.81;;;17.58;25.50
64064;BME280;50314;50.618;10.642;2023-02-23T12:47:51;96300.47;;;17.55;25.70
64064;BME280;50314;50.618;10.642;2023-02-23T12:52:53;96294.81;;;17.58;25.88
64064;BME280;50314;50.618;10.642;2023-02-23T12:55:35;96292.47;;;17.55;25.61
64064;BME280;50314;50.618;10.642;2023-02-23T13:16:47;96283.31;;;17.57;25.81
64064;BME280;50314;50.618;10.642;2023-02-23T13:24:38;96282.16;;;17.60;26.01
64064;BME280;50314;50.618;10.642;2023-02-23T13:27:17;96283.16;;;17.59;25.97
64064;BME280;50314;50.618;10.642;2023-02-23T13:29:48;96274.81;;;17.62;25.60
64064;BME280;50314;50.618;10.642;2023-02-23T13:32:25;96275.84;;;17.61;25.96
64064;BME280;50314;50.618;10.642;2023-02-23T13:35:01;96277.50;;;17.62;25.97
64064;BME280;50314;50.618;10.642;2023-02-23T13:37:31;96275.50;;;17.64;25.68
64064;BME280;50314;50.618;10.642;2023-02-23T13:40:14;96272.84;;;17.64;25.90
64064;BME280;50314;50.618;10.642;2023-02-23T13:42:54;96271.19;;;17.63;25.70
64064;BME280;50314;50.618;10.642;2023-02-23T13:56:35;96270.66;;;17.68;25.77
64064;BME280;50314;50.618;10.642;2023-02-23T13:59:09;96274.00;;;17.70;25.50
64064;BME280;50314;50.618;10.642;2023-02-23T14:01:43;96275.81;;;17.69;25.92
64064;BME280;50314;50.618;10.642;2023-02-23T14:06:52;96272.31;;;17.69;25.62
64064;BME280;50314;50.618;10.642;2023-02-23T14:09:31;96272.31;;;17.69;25.82
64064;BME280;50314;50.618;10.642;2023-02-23T14:12:13;96269.66;;;17.69;25.89
64064;BME280;50314;50.618;10.642;2023-02-23T14:14:45;96270.97;;;17.73;25.67
64064;BME280;50314;50.618;10.642;2023-02-23T14:19:43;96270.97;;;17.73;25.88
64064;BME280;50314;50.618;10.642;2023-02-23T14:22:26;96271.84;;;17.73;25.54
64064;BME280;50314;50.618;10.642;2023-02-23T14:28:03;96269.50;;;17.70;26.00
64064;BME280;50314;50.618;10.642;2023-02-23T14:30:47;96276.31;;;17.73;25.64
64064;BME280;50314;50.618;10.642;2023-02-23T14:33:37;96265.16;;;17.69;25.62
64064;BME280;50314;50.618;10.642;2023-02-23T14:41:39;96258.84;;;17.70;25.88
64064;BME280;50314;50.618;10.642;2023-02-23T14:44:12;96258.69;;;17.72;25.68
64064;BME280;50314;50.618;10.642;2023-02-23T14:46:47;96264.00;;;17.72;25.60
64064;BME280;50314;50.618;10.642;2023-02-23T14:49:18;96261.81;;;17.75;25.71
64064;BME280;50314;50.618;10.642;2023-02-23T14:51:45;96256.34;;;17.77;25.44
64064;BME280;50314;50.618;10.642;2023-02-23T14:54:32;96255.53;;;17.76;25.44
64064;BME280;50314;50.618;10.642;2023-02-23T14:57:00;96258.19;;;17.76;25.60
64064;BME280;50314;50.618;10.642;2023-02-23T14:59:37;96252.34;;;17.73;25.76
64064;BME280;50314;50.618;10.642;2023-02-23T15:02:18;96255.19;;;17.71;25.57
64064;BME280;50314;50.618;10.642;2023-02-23T15:04:44;96254.84;;;17.74;25.39
64064;BME280;50314;50.618;10.642;2023-02-23T15:07:38;96249.03;;;17.71;25.55